VJT462 LEBB-ENCN
Flight info
| Callsign | VJT462 |
|---|---|
| Flight time | N/A |
| Altitude | 40000 |
| Route | MAPAX N867 NENEM DCT YURZI UL14 TEPRA UN867 RINSO UM184 PILIP UN6 TELTU/N0459F410 UM185 DIGSU N866 BANEM M604 GIVPO DCT TOPPA DCT SUTEB DCT OKMAM P850 DANKO M604 LANTI |
| Aircraft | CL60/M-SBDE1E2E3FGHIJ1J4J5J7M3RWXYZ/LB1V1D1 |
Departure
| Time | N/A |
|---|---|
| Airport | Bilbao Airport (LEBB) |
Arrival
| Time | 2026-04-21 17:20 |
|---|---|
| Airport | Kristiansand Airport (ENCN) |
| Time | Latitude | Longitude | Altitude | Speed | Heading |
|---|---|---|---|---|---|
| 2026-04-21 16:53 | 56.76685 | 6.52896 | 37228 ft | 437 kts | 25° |
| 2026-04-21 16:54 | 56.79438 | 6.55067 | 36857 ft | 438 kts | 25° |
| 2026-04-21 16:54 | 56.82222 | 6.57265 | 36494 ft | 439 kts | 25° |
| 2026-04-21 16:54 | 56.85046 | 6.59500 | 36167 ft | 442 kts | 25° |
| 2026-04-21 16:54 | 56.87854 | 6.61724 | 35755 ft | 445 kts | 25° |
| 2026-04-21 16:55 | 56.90681 | 6.63967 | 35275 ft | 447 kts | 25° |
| 2026-04-21 16:55 | 56.93516 | 6.66219 | 34664 ft | 443 kts | 26° |
| 2026-04-21 16:55 | 56.96330 | 6.68457 | 34222 ft | 445 kts | 26° |
| 2026-04-21 16:55 | 56.99165 | 6.70719 | 33776 ft | 448 kts | 26° |
| 2026-04-21 16:56 | 57.01989 | 6.72973 | 33332 ft | 450 kts | 26° |
| 2026-04-21 16:56 | 57.04875 | 6.75281 | 32881 ft | 451 kts | 26° |
| 2026-04-21 16:56 | 57.07742 | 6.77577 | 32434 ft | 450 kts | 26° |
| 2026-04-21 16:56 | 57.10571 | 6.79845 | 31986 ft | 448 kts | 26° |
| 2026-04-21 16:57 | 57.13427 | 6.82139 | 31534 ft | 445 kts | 26° |
| 2026-04-21 16:57 | 57.16222 | 6.84387 | 31089 ft | 443 kts | 26° |
| 2026-04-21 16:57 | 57.19035 | 6.86654 | 30637 ft | 440 kts | 26° |
| 2026-04-21 16:57 | 57.21825 | 6.88906 | 30192 ft | 437 kts | 26° |
| 2026-04-21 16:58 | 57.24559 | 6.91117 | 29744 ft | 434 kts | 26° |
| 2026-04-21 16:58 | 57.27313 | 6.93347 | 29294 ft | 431 kts | 26° |
| 2026-04-21 16:58 | 57.30040 | 6.95561 | 28850 ft | 429 kts | 26° |
| 2026-04-21 16:58 | 57.32736 | 6.97751 | 28397 ft | 426 kts | 26° |
| 2026-04-21 16:59 | 57.35442 | 6.99954 | 27949 ft | 423 kts | 26° |
| 2026-04-21 16:59 | 57.38092 | 7.02115 | 27501 ft | 420 kts | 26° |
| 2026-04-21 16:59 | 57.40752 | 7.04287 | 27046 ft | 417 kts | 26° |
| 2026-04-21 16:59 | 57.43386 | 7.06440 | 26591 ft | 414 kts | 26° |
| 2026-04-21 17:00 | 57.45983 | 7.08568 | 26142 ft | 411 kts | 26° |
| 2026-04-21 17:00 | 57.48598 | 7.10715 | 25689 ft | 408 kts | 26° |
| 2026-04-21 17:00 | 57.50309 | 7.12120 | 25391 ft | 406 kts | 26° |
| 2026-04-21 17:00 | 57.53713 | 7.14921 | 24795 ft | 402 kts | 26° |
| 2026-04-21 17:01 | 57.56253 | 7.17015 | 24347 ft | 400 kts | 26° |
| 2026-04-21 17:01 | 57.58790 | 7.19110 | 23898 ft | 397 kts | 26° |
| 2026-04-21 17:01 | 57.61304 | 7.21189 | 23450 ft | 395 kts | 26° |
| 2026-04-21 17:01 | 57.63796 | 7.23253 | 23022 ft | 391 kts | 26° |
| 2026-04-21 17:02 | 57.66253 | 7.25290 | 22651 ft | 389 kts | 26° |
| 2026-04-21 17:02 | 57.68710 | 7.27332 | 22275 ft | 387 kts | 26° |
| 2026-04-21 17:02 | 57.71145 | 7.29358 | 21903 ft | 385 kts | 26° |
| 2026-04-21 17:02 | 57.73570 | 7.31379 | 21530 ft | 383 kts | 26° |
| 2026-04-21 17:03 | 57.76016 | 7.33420 | 21085 ft | 382 kts | 26° |
| 2026-04-21 17:03 | 57.78409 | 7.35419 | 20632 ft | 377 kts | 26° |
| 2026-04-21 17:03 | 57.80771 | 7.37395 | 20180 ft | 375 kts | 26° |
| 2026-04-21 17:03 | 57.83156 | 7.39394 | 19722 ft | 372 kts | 26° |
| 2026-04-21 17:04 | 57.85495 | 7.41356 | 19274 ft | 370 kts | 26° |
| 2026-04-21 17:04 | 57.87812 | 7.43304 | 18829 ft | 367 kts | 26° |
| 2026-04-21 17:04 | 57.90121 | 7.45247 | 18388 ft | 364 kts | 26° |
| 2026-04-21 17:04 | 57.92420 | 7.47185 | 17942 ft | 361 kts | 26° |
| 2026-04-21 17:05 | 57.94690 | 7.49100 | 17507 ft | 357 kts | 25° |
| 2026-04-21 17:05 | 57.96935 | 7.50998 | 17076 ft | 354 kts | 25° |
| 2026-04-21 17:05 | 57.99172 | 7.52891 | 16646 ft | 351 kts | 25° |
| 2026-04-21 17:05 | 58.01374 | 7.54758 | 16221 ft | 349 kts | 25° |
| 2026-04-21 17:06 | 58.03574 | 7.56625 | 15806 ft | 346 kts | 25° |
| 2026-04-21 17:06 | 58.05743 | 7.58469 | 15396 ft | 343 kts | 25° |
| 2026-04-21 17:06 | 58.07899 | 7.60304 | 14966 ft | 340 kts | 25° |
| 2026-04-21 17:06 | 58.10042 | 7.62130 | 14546 ft | 336 kts | 25° |
| 2026-04-21 17:07 | 58.12147 | 7.63926 | 14148 ft | 334 kts | 25° |
| 2026-04-21 17:07 | 58.14285 | 7.65752 | 13733 ft | 330 kts | 25° |
| 2026-04-21 17:07 | 58.16346 | 7.67515 | 13342 ft | 327 kts | 25° |
| 2026-04-21 17:07 | 58.18413 | 7.69286 | 12920 ft | 324 kts | 25° |
| 2026-04-21 17:08 | 58.20439 | 7.71023 | 12552 ft | 320 kts | 25° |
| 2026-04-21 17:08 | 58.22434 | 7.72737 | 12181 ft | 314 kts | 25° |
| 2026-04-21 17:08 | 58.24412 | 7.74437 | 11770 ft | 307 kts | 25° |
| 2026-04-21 17:08 | 58.26305 | 7.76068 | 11413 ft | 298 kts | 25° |
| 2026-04-21 17:09 | 58.29989 | 7.79245 | 10711 ft | 283 kts | 25° |
| 2026-04-21 17:09 | 58.31745 | 7.80762 | 10366 ft | 277 kts | 25° |
| 2026-04-21 17:09 | 58.33499 | 7.82281 | 9959 ft | 275 kts | 25° |
| 2026-04-21 17:10 | 58.35233 | 7.83782 | 9375 ft | 278 kts | 25° |
| 2026-04-21 17:10 | 58.36986 | 7.85302 | 9026 ft | 273 kts | 25° |
| 2026-04-21 17:10 | 58.38691 | 7.86783 | 8635 ft | 268 kts | 25° |
| 2026-04-21 17:10 | 58.40270 | 7.88508 | 8321 ft | 262 kts | 35° |
| 2026-04-21 17:11 | 58.41754 | 7.90494 | 7969 ft | 257 kts | 35° |
| 2026-04-21 17:11 | 58.43182 | 7.92400 | 7688 ft | 250 kts | 35° |
| 2026-04-21 17:11 | 58.44591 | 7.94279 | 7380 ft | 245 kts | 35° |
| 2026-04-21 17:11 | 58.45956 | 7.96166 | 7078 ft | 240 kts | 41° |
| 2026-04-21 17:12 | 58.46960 | 7.98629 | 6704 ft | 239 kts | 64° |
| 2026-04-21 17:12 | 58.47346 | 8.01695 | 6351 ft | 239 kts | 88° |
| 2026-04-21 17:12 | 58.47029 | 8.04783 | 5941 ft | 242 kts | 112° |
| 2026-04-21 17:12 | 58.46143 | 8.07481 | 5584 ft | 241 kts | 123° |
| 2026-04-21 17:13 | 58.45189 | 8.10072 | 5334 ft | 234 kts | 122° |
| 2026-04-21 17:13 | 58.44273 | 8.12587 | 5042 ft | 231 kts | 122° |
| 2026-04-21 17:13 | 58.43361 | 8.15084 | 4776 ft | 226 kts | 122° |
| 2026-04-21 17:13 | 58.42477 | 8.17506 | 4501 ft | 223 kts | 122° |
| 2026-04-21 17:14 | 58.41598 | 8.19910 | 4218 ft | 220 kts | 122° |
| 2026-04-21 17:14 | 58.40736 | 8.22264 | 3965 ft | 216 kts | 122° |
| 2026-04-21 17:14 | 58.39883 | 8.24591 | 3700 ft | 213 kts | 122° |
| 2026-04-21 17:14 | 58.39033 | 8.26852 | 3463 ft | 209 kts | 128° |
| 2026-04-21 17:15 | 58.37915 | 8.28567 | 3206 ft | 209 kts | 154° |
| 2026-04-21 17:15 | 58.36510 | 8.29058 | 2991 ft | 204 kts | 186° |
| 2026-04-21 17:15 | 58.35238 | 8.28244 | 2990 ft | 189 kts | 212° |
| 2026-04-21 17:15 | 58.34150 | 8.26848 | 3004 ft | 192 kts | 216° |
| 2026-04-21 17:16 | 58.33050 | 8.25379 | 2981 ft | 192 kts | 216° |
| 2026-04-21 17:16 | 58.31965 | 8.23932 | 2975 ft | 187 kts | 216° |
| 2026-04-21 17:16 | 58.30919 | 8.22537 | 2795 ft | 182 kts | 216° |
| 2026-04-21 17:16 | 58.29901 | 8.21178 | 2509 ft | 174 kts | 217° |
| 2026-04-21 17:17 | 58.28945 | 8.19901 | 2268 ft | 165 kts | 217° |
| 2026-04-21 17:17 | 58.28047 | 8.18703 | 1974 ft | 153 kts | 217° |
| 2026-04-21 17:17 | 58.27232 | 8.17619 | 1785 ft | 132 kts | 217° |
| 2026-04-21 17:17 | 58.26486 | 8.16625 | 1611 ft | 132 kts | 217° |
| 2026-04-21 17:18 | 58.25742 | 8.15628 | 1360 ft | 128 kts | 216° |
| 2026-04-21 17:18 | 58.25023 | 8.14664 | 1181 ft | 127 kts | 216° |
| 2026-04-21 17:18 | 58.24307 | 8.13706 | 971 ft | 126 kts | 216° |
| 2026-04-21 17:18 | 58.23593 | 8.12717 | 784 ft | 126 kts | 216° |
| 2026-04-21 17:19 | 58.22882 | 8.11820 | 583 ft | 121 kts | 211° |
| 2026-04-21 17:19 | 58.22188 | 8.10932 | 410 ft | 122 kts | 213° |
| 2026-04-21 17:19 | 58.21501 | 8.09984 | 218 ft | 123 kts | 214° |
| 2026-04-21 17:19 | 58.20805 | 8.09044 | 62 ft | 116 kts | 213° |
| 2026-04-21 17:20 | 58.20262 | 8.08325 | 47 ft | 67 kts | 216° |
| 2026-04-21 17:20 | 58.20018 | 8.07996 | 45 ft | 33 kts | 216° |
| 2026-04-21 17:20 | 58.19829 | 8.07744 | 44 ft | 30 kts | 213° |
| 2026-04-21 17:20 | 58.19716 | 8.07588 | 43 ft | 12 kts | 236° |
| 2026-04-21 17:21 | 58.19736 | 8.07489 | 43 ft | 9 kts | 336° |
| 2026-04-21 17:21 | 58.19812 | 8.07435 | 43 ft | 13 kts | 339° |
| 2026-04-21 17:21 | 58.19880 | 8.07389 | 43 ft | 10 kts | 341° |
| 2026-04-21 17:21 | 58.19965 | 8.07348 | 44 ft | 13 kts | 355° |
| 2026-04-21 17:22 | 58.20033 | 8.07344 | 44 ft | 6 kts | 342° |
| 2026-04-21 17:22 | 58.20042 | 8.07332 | 44 ft | 0 kts | 313° |